Time;durP1;ratioP1;P1;durP2;ratioP2;P2;SDS_P1;SDS_P2;PMS_P1;PMS_P2;Temp;Humidity;BMP_temperature;BMP_pressure;BME280_temperature;BME280_humidity;BME280_pressure;Samples;Min_cycle;Max_cycle;Signal;HPM_P1;HPM_P2
2023/02/27 00:00:52;;;;;;;5.53;1.50;;;1.80;99.90;;;;;;5121014;23;20220;-92
2023/02/27 00:03:06;;;;;;;8.63;1.30;;;1.80;99.90;;;;;;5106999;23;20191;-94
2023/02/27 00:05:55;;;;;;;5.57;1.40;;;1.80;99.90;;;;;;5108592;23;20224;-93
2023/02/27 00:09:11;;;;;;;8.30;1.30;;;1.80;99.90;;;;;;5130240;22;20207;-94
2023/02/27 00:11:31;;;;;;;8.73;1.40;;;1.80;99.90;;;;;;5183587;22;20178;-92
2023/02/27 00:13:52;;;;;;;6.20;1.17;;;1.70;99.90;;;;;;5189034;22;20167;-92
2023/02/27 00:16:11;;;;;;;7.30;1.43;;;1.80;99.90;;;;;;5185237;22;20145;-92
2023/02/27 00:19:05;;;;;;;10.20;1.40;;;1.70;99.90;;;;;;5191749;22;20190;-92
2023/02/27 00:21:43;;;;;;;6.70;1.30;;;1.80;99.90;;;;;;5176892;22;20266;-95
2023/02/27 00:24:04;;;;;;;8.07;1.43;;;1.80;99.90;;;;;;5183710;22;20598;-93
2023/02/27 00:26:19;;;;;;;7.20;1.50;;;1.80;99.90;;;;;;5186467;22;20155;-91
2023/02/27 00:28:51;;;;;;;6.17;1.47;;;1.70;99.90;;;;;;5160339;22;20135;-92
2023/02/27 00:31:03;;;;;;;2.27;0.80;;;1.70;99.90;;;;;;5170668;22;20290;-93
2023/02/27 00:34:03;;;;;;;4.43;1.20;;;1.60;99.90;;;;;;5159649;22;20227;-94
2023/02/27 00:36:23;;;;;;;7.40;2.10;;;1.60;99.90;;;;;;5156193;22;20231;-92
2023/02/27 00:38:49;;;;;;;5.50;1.20;;;1.60;99.90;;;;;;5160434;22;20659;-92
2023/02/27 00:41:36;;;;;;;6.90;1.50;;;1.60;99.90;;;;;;5166959;22;20177;-92
2023/02/27 00:47:26;;;;;;;7.97;1.30;;;1.60;99.90;;;;;;4998448;23;20195;-93
2023/02/27 00:49:33;;;;;;;8.80;1.80;;;1.60;99.90;;;;;;4993736;23;20177;-92
2023/02/27 01:57:54;;;;;;;5.47;1.27;;;1.20;99.90;;;;;;5211409;22;20185;-93
2023/02/27 02:00:52;;;;;;;;;;;;;;;;;;;;;
2023/02/27 02:17:32;;;;;;;6.70;1.33;;;1.40;99.90;;;;;;5206481;22;20263;-92
2023/02/27 02:21:05;;;;;;;4.67;1.13;;;1.40;99.90;;;;;;5230818;22;20193;-91
2023/02/27 02:23:40;;;;;;;5.10;1.07;;;1.30;99.90;;;;;;5169448;22;20162;-93
2023/02/27 02:26:51;;;;;;;7.10;1.30;;;1.20;99.90;;;;;;5182809;22;20968;-93
2023/02/27 02:29:39;;;;;;;4.87;1.20;;;1.20;99.90;;;;;;5103996;23;20145;-93
2023/02/27 02:32:42;;;;;;;4.93;1.07;;;1.10;99.90;;;;;;5100988;23;20208;-92
2023/02/27 02:35:22;;;;;;;8.50;1.30;;;1.00;99.90;;;;;;5127979;23;20163;-93
2023/02/27 02:37:29;;;;;;;10.93;1.93;;;1.00;99.90;;;;;;5133907;23;20167;-92
2023/02/27 02:40:35;;;;;;;;;;;;;;;;;;;;;
2023/02/27 02:43:55;;;;;;;4.00;1.50;;;0.90;99.90;;;;;;5132373;23;20164;-91
2023/02/27 02:46:54;;;;;;;;;;;;;;;;;;;;;
2023/02/27 02:49:54;;;;;;;;;;;;;;;;;;;;;
2023/02/27 02:52:57;;;;;;;;;;;;;;;;;;;;;
2023/02/27 03:02:07;;;;;;;9.50;1.60;;;1.10;99.90;;;;;;5118419;23;20183;-92
2023/02/27 03:12:06;;;;;;;;;;;;;;;;;;;;;
2023/02/27 03:15:49;;;;;;;;;;;;;;;;;;;;;
2023/02/27 03:18:56;;;;;;;7.97;1.57;;;1.00;99.90;;;;;;5108143;23;20152;-93
2023/02/27 03:21:54;;;;;;;9.57;1.83;;;0.90;99.90;;;;;;5152591;22;20236;-92
2023/02/27 03:25:05;;;;;;;10.45;1.25;;;0.90;99.90;;;;;;3958807;23;27221285;-93
2023/02/27 03:28:29;;;;;;;;;;;;;;;;;;;;;
2023/02/27 03:31:21;;;;;;;3.57;1.20;;;1.00;99.90;;;;;;5154202;22;20190;-92
2023/02/27 03:34:18;;;;;;;7.17;1.60;;;1.00;99.90;;;;;;5121532;22;20160;-92
2023/02/27 03:36:26;;;;;;;4.77;1.30;;;0.90;99.90;;;;;;5106677;23;20161;-91
2023/02/27 03:38:35;;;;;;;9.00;1.60;;;0.90;99.90;;;;;;5107845;23;20197;-91
2023/02/27 03:41:27;;;;;;;5.17;1.33;;;0.80;99.90;;;;;;5127502;23;20206;-91
2023/02/27 03:44:15;;;;;;;13.47;1.80;;;0.80;99.90;;;;;;5143930;22;20174;-92
2023/02/27 03:46:36;;;;;;;4.73;1.40;;;0.80;99.90;;;;;;5135672;23;20144;-92
2023/02/27 03:48:57;;;;;;;7.93;1.80;;;0.80;99.90;;;;;;5164088;22;20174;-91
2023/02/27 03:51:04;;;;;;;6.97;1.67;;;0.70;99.90;;;;;;5157939;23;20262;-92
2023/02/27 03:53:27;;;;;;;6.53;1.37;;;0.70;99.90;;;;;;5159978;22;20162;-93
2023/02/27 03:56:06;;;;;;;4.90;1.33;;;0.70;99.90;;;;;;5134985;23;20152;-92
2023/02/27 03:58:07;;;;;;;4.63;1.37;;;0.70;99.90;;;;;;5135187;23;20499;-92
2023/02/27 04:00:42;;;;;;;9.80;1.40;;;0.70;99.90;;;;;;5160805;22;20538;-91
2023/02/27 04:03:25;;;;;;;6.27;1.60;;;0.70;99.90;;;;;;5163297;22;20166;-90
2023/02/27 04:05:27;;;;;;;9.73;1.90;;;0.70;99.90;;;;;;5136976;23;20151;-92
2023/02/27 04:08:21;;;;;;;6.90;1.50;;;0.70;99.90;;;;;;5165141;22;20151;-93
2023/02/27 04:10:31;;;;;;;7.73;1.70;;;0.60;99.90;;;;;;5136402;23;20279;-91
2023/02/27 04:13:11;;;;;;;6.20;1.57;;;0.50;99.90;;;;;;5159173;22;20170;-91
2023/02/27 04:15:21;;;;;;;11.00;1.57;;;0.50;99.90;;;;;;5136450;23;20166;-92
2023/02/27 04:17:36;;;;;;;5.87;1.53;;;0.50;99.90;;;;;;5136337;23;20168;-92
2023/02/27 04:19:46;;;;;;;10.07;2.10;;;0.50;99.90;;;;;;5136016;23;20163;-92
2023/02/27 04:22:06;;;;;;;8.30;1.43;;;0.50;99.90;;;;;;5135265;23;20204;-90
2023/02/27 04:24:55;;;;;;;6.53;1.70;;;0.50;99.90;;;;;;5137927;23;20200;-91
2023/02/27 04:27:24;;;;;;;11.53;1.90;;;0.50;99.90;;;;;;5112477;23;20173;-90
2023/02/27 04:29:39;;;;;;;3.73;1.20;;;0.50;99.90;;;;;;5129416;23;20168;-90
2023/02/27 04:32:00;;;;;;;4.83;1.60;;;0.50;99.90;;;;;;5166024;22;20284;-90
2023/02/27 04:34:17;;;;;;;10.13;1.93;;;0.50;99.90;;;;;;5206626;22;20162;-91
2023/02/27 04:36:31;;;;;;;7.03;1.70;;;0.50;99.90;;;;;;5210223;22;20158;-90
2023/02/27 04:39:08;;;;;;;7.17;1.97;;;0.50;99.90;;;;;;5211983;22;20138;-93
2023/02/27 04:41:38;;;;;;;10.03;1.50;;;0.50;99.90;;;;;;5228033;22;20153;-91
2023/02/27 04:43:41;;;;;;;5.97;1.70;;;0.60;99.90;;;;;;5233938;22;20158;-91
2023/02/27 04:45:45;;;;;;;5.03;1.57;;;0.70;99.90;;;;;;5233566;22;20588;-93
2023/02/27 04:48:00;;;;;;;10.30;1.60;;;0.80;99.90;;;;;;5234442;22;20174;-92
2023/02/27 04:50:14;;;;;;;6.63;2.03;;;1.00;99.90;;;;;;5236334;22;20489;-92
2023/02/27 04:52:51;;;;;;;6.73;2.00;;;1.10;99.90;;;;;;5230307;22;20158;-91
2023/02/27 04:55:07;;;;;;;3.90;1.60;;;1.20;99.90;;;;;;5209335;22;20208;-90
2023/02/27 04:57:25;;;;;;;6.73;1.87;;;1.00;99.90;;;;;;5236810;22;20183;-91
2023/02/27 04:59:33;;;;;;;8.60;1.93;;;0.90;99.90;;;;;;5205201;22;20158;-90
2023/02/27 05:01:52;;;;;;;9.40;1.97;;;0.80;99.90;;;;;;5201005;22;20690;-91
2023/02/27 05:04:14;;;;;;;9.07;1.93;;;0.70;99.90;;;;;;5209838;22;20165;-90
2023/02/27 05:06:34;;;;;;;6.60;1.60;;;0.70;99.90;;;;;;5228261;22;20134;-90
2023/02/27 05:08:41;;;;;;;5.50;2.10;;;0.70;99.90;;;;;;5203404;22;20178;-92
2023/02/27 05:11:19;;;;;;;8.57;1.87;;;0.60;99.90;;;;;;5254056;22;20192;-91
2023/02/27 05:13:35;;;;;;;10.43;2.10;;;0.60;99.90;;;;;;5205428;22;20154;-89
2023/02/27 05:15:59;;;;;;;6.70;1.73;;;0.60;99.90;;;;;;5205943;22;20198;-91
2023/02/27 05:18:10;;;;;;;3.77;1.87;;;0.50;99.90;;;;;;5203881;22;20663;-90
2023/02/27 05:20:27;;;;;;;6.23;1.90;;;0.50;99.90;;;;;;5204042;22;20185;-90
2023/02/27 05:23:06;;;;;;;6.47;2.10;;;0.50;99.90;;;;;;5231206;22;20153;-90
2023/02/27 05:25:13;;;;;;;8.77;2.20;;;0.50;99.90;;;;;;5230115;22;20157;-90
2023/02/27 05:27:28;;;;;;;8.50;2.43;;;0.40;99.90;;;;;;5205576;22;20241;-90
2023/02/27 05:29:51;;;;;;;7.40;1.70;;;0.40;99.90;;;;;;5229881;22;20192;-90
2023/02/27 05:31:59;;;;;;;8.50;2.47;;;0.40;99.90;;;;;;5200568;22;20182;-89
2023/02/27 05:34:15;;;;;;;6.83;2.07;;;0.40;99.90;;;;;;5186944;22;20193;-92
2023/02/27 05:36:39;;;;;;;9.07;2.03;;;0.40;99.90;;;;;;5182970;22;20139;-89
2023/02/27 05:38:44;;;;;;;6.53;1.87;;;0.40;99.90;;;;;;5158570;22;20178;-90
2023/02/27 05:41:13;;;;;;;8.10;2.13;;;0.40;99.90;;;;;;5169926;22;20180;-90
2023/02/27 05:43:32;;;;;;;7.27;1.93;;;0.40;99.90;;;;;;5135378;23;20156;-89
2023/02/27 05:45:39;;;;;;;6.70;2.17;;;0.30;99.90;;;;;;5160303;22;20255;-90
2023/02/27 05:48:03;;;;;;;7.37;2.33;;;0.30;99.90;;;;;;5134199;23;20137;-90
2023/02/27 05:50:16;;;;;;;7.13;2.43;;;0.30;99.90;;;;;;5135441;23;20775;-91
2023/02/27 05:52:31;;;;;;;6.90;2.40;;;0.30;99.90;;;;;;5159941;22;20147;-89
2023/02/27 05:54:52;;;;;;;6.63;2.00;;;0.30;99.90;;;;;;5130744;23;20140;-90
2023/02/27 05:56:56;;;;;;;7.40;2.00;;;0.30;99.90;;;;;;5134605;23;20278;-91
2023/02/27 05:59:25;;;;;;;15.30;2.53;;;0.30;99.90;;;;;;5160893;22;20135;-89
2023/02/27 06:01:26;;;;;;;6.30;1.93;;;0.30;99.90;;;;;;5084452;23;20184;-90
2023/02/27 06:03:31;;;;;;;7.50;2.30;;;0.30;99.90;;;;;;5137776;22;20216;-91
2023/02/27 06:05:32;;;;;;;10.97;2.90;;;0.30;99.90;;;;;;5130681;23;20160;-91
2023/02/27 06:07:34;;;;;;;9.93;2.23;;;0.30;99.90;;;;;;5126761;23;20520;-91
2023/02/27 06:09:35;;;;;;;8.90;2.00;;;0.30;99.90;;;;;;5151811;22;20155;-90
2023/02/27 06:11:38;;;;;;;8.07;2.00;;;0.30;99.90;;;;;;5128463;23;20468;-89
2023/02/27 06:13:39;;;;;;;11.33;2.80;;;0.30;99.90;;;;;;5157765;22;20167;-88
2023/02/27 06:15:40;;;;;;;9.90;2.37;;;0.30;99.90;;;;;;5126246;23;20148;-89
2023/02/27 06:17:41;;;;;;;5.23;2.53;;;0.30;99.90;;;;;;5126279;22;20159;-90
2023/02/27 06:19:41;;;;;;;9.77;2.60;;;0.30;99.90;;;;;;5128616;23;20215;-89
2023/02/27 06:21:42;;;;;;;7.07;2.53;;;0.40;99.90;;;;;;5128673;22;20172;-90
2023/02/27 06:23:43;;;;;;;8.37;2.63;;;0.40;99.90;;;;;;5130958;23;20159;-90
2023/02/27 06:25:44;;;;;;;10.13;2.20;;;0.50;99.90;;;;;;5131070;23;20156;-91
2023/02/27 06:27:45;;;;;;;11.27;2.97;;;0.60;99.90;;;;;;5131259;23;20171;-89
2023/02/27 06:29:45;;;;;;;8.93;2.93;;;0.60;99.90;;;;;;5130185;23;20152;-90
2023/02/27 06:31:46;;;;;;;5.83;2.37;;;0.60;99.90;;;;;;5153844;22;20601;-89
2023/02/27 06:33:47;;;;;;;6.33;2.10;;;0.50;99.90;;;;;;5154038;22;20165;-91
2023/02/27 06:35:48;;;;;;;16.30;2.73;;;0.50;99.90;;;;;;5136077;23;20164;-88
2023/02/27 08:07:56;;;;;;;;;;;;;;;;;;;;;
2023/02/27 08:17:19;;;;;;;6.77;2.97;;;2.30;99.90;;;;;;4930664;24;20635;-93
2023/02/27 08:23:28;;;;;;;8.60;2.97;;;3.30;99.90;;;;;;4858982;24;20198;-94
2023/02/27 08:25:41;;;;;;;8.63;3.03;;;3.80;99.90;;;;;;4895943;24;20166;-93
2023/02/27 08:27:42;;;;;;;4.90;2.60;;;4.00;99.90;;;;;;4936041;24;20157;-95
2023/02/27 08:29:54;;;;;;;9.47;2.87;;;4.00;99.90;;;;;;4972491;23;20246;-93
2023/02/27 08:31:55;;;;;;;8.73;3.10;;;4.20;99.90;;;;;;4995340;23;20183;-93
2023/02/27 08:33:58;;;;;;;7.53;3.00;;;4.10;99.90;;;;;;5145441;23;20144;-93
2023/02/27 08:36:06;;;;;;;11.37;2.97;;;4.20;99.90;;;;;;5192660;22;20154;-95
2023/02/27 08:38:44;;;;;;;13.23;2.97;;;4.40;99.90;;;;;;5178376;23;20151;-93
2023/02/27 08:40:54;;;;;;;9.27;2.80;;;4.70;99.90;;;;;;5138411;23;20179;-94
2023/02/27 08:43:05;;;;;;;;;;;;;;;;;;;;;
2023/02/27 08:45:09;;;;;;;9.03;2.70;;;5.00;99.90;;;;;;5172346;23;20182;-93
2023/02/27 08:47:45;;;;;;;8.03;3.03;;;5.00;99.90;;;;;;5173612;23;20193;-95
2023/02/27 08:50:44;;;;;;;7.17;2.57;;;5.10;99.90;;;;;;5147499;23;20151;-92
2023/02/27 08:53:17;;;;;;;8.43;2.60;;;5.50;99.90;;;;;;5120956;23;20175;-93
2023/02/27 08:55:38;;;;;;;10.63;2.80;;;6.30;99.90;;;;;;5170862;23;20151;-93
2023/02/27 08:57:39;;;;;;;9.40;2.90;;;6.20;99.90;;;;;;5144701;23;20155;-92
2023/02/27 08:59:44;;;;;;;11.17;2.83;;;6.60;99.90;;;;;;5171166;22;20161;-94
2023/02/27 09:01:54;;;;;;;8.90;3.67;;;6.30;99.90;;;;;;5171305;23;20143;-93
2023/02/27 09:04:04;;;;;;;11.70;3.10;;;6.20;99.90;;;;;;5170843;23;20189;-93
2023/02/27 09:06:11;;;;;;;7.90;2.93;;;6.20;99.90;;;;;;5146123;23;20159;-94
2023/02/27 09:08:19;;;;;;;9.43;2.90;;;6.20;99.90;;;;;;5145414;23;20160;-94
2023/02/27 09:10:23;;;;;;;7.40;3.20;;;6.10;99.90;;;;;;5145821;23;20186;-92
2023/02/27 09:12:27;;;;;;;8.60;3.20;;;5.80;99.90;;;;;;5147724;23;20160;-92
2023/02/27 09:14:48;;;;;;;7.40;2.77;;;5.40;99.90;;;;;;5144423;23;20281;-93
2023/02/27 09:16:57;;;;;;;8.03;2.97;;;5.40;99.90;;;;;;5146379;23;20249;-95
2023/02/27 09:19:01;;;;;;;6.97;2.40;;;5.40;99.90;;;;;;5144602;23;20230;-92
2023/02/27 09:21:02;;;;;;;10.30;3.10;;;5.40;99.90;;;;;;5144767;23;20183;-95
2023/02/27 09:26:12;;;;;;;16.90;3.73;;;5.90;99.90;;;;;;5199427;22;20208;-94
2023/02/27 09:28:48;;;;;;;9.07;2.80;;;6.40;99.90;;;;;;5147066;23;20148;-94
2023/02/27 09:33:37;;;;;;;9.20;3.80;;;6.50;99.90;;;;;;5161366;22;20150;-93
2023/02/27 09:35:38;;;;;;;7.70;2.70;;;6.10;99.90;;;;;;5178935;23;20151;-94
2023/02/27 09:37:56;;;;;;;6.63;2.63;;;5.80;99.90;;;;;;5183557;22;20206;-93
2023/02/27 09:39:57;;;;;;;6.77;3.03;;;5.50;99.90;;;;;;5149417;23;20511;-92
2023/02/27 17:37:25;;;;;;;4.53;1.23;;;4.70;99.90;;;;;;5221642;22;20150;-94
2023/02/27 17:39:47;;;;;;;4.73;1.63;;;4.60;99.90;;;;;;5220476;22;20198;-95
2023/02/27 17:42:15;;;;;;;7.23;1.30;;;4.60;99.90;;;;;;5170626;23;20151;-95
2023/02/27 17:47:18;;;;;;;5.67;1.50;;;4.50;99.90;;;;;;5126971;23;20201;-94
2023/02/27 17:50:25;;;;;;;5.23;1.50;;;4.50;99.90;;;;;;5144740;23;20167;-93
2023/02/27 17:53:37;;;;;;;;;;;;;;;;;;;;;
2023/02/27 17:56:06;;;;;;;4.47;1.50;;;4.50;99.90;;;;;;5148919;23;20167;-94
2023/02/27 17:58:30;;;;;;;6.13;2.27;;;4.40;99.90;;;;;;5170770;22;20155;-94
2023/02/27 18:01:24;;;;;;;5.07;1.67;;;4.40;99.90;;;;;;5174628;22;20185;-93
2023/02/27 18:36:29;;;;;;;5.37;1.80;;;4.40;99.90;;;;;;5196574;22;20208;-92
2023/02/27 18:38:39;;;;;;;4.90;1.80;;;4.50;99.90;;;;;;5147004;23;20647;-93
2023/02/27 18:41:11;;;;;;;3.57;1.47;;;4.50;99.90;;;;;;5159506;22;20206;-92
2023/02/27 18:43:12;;;;;;;4.40;1.60;;;4.60;99.90;;;;;;5163056;23;20597;-92
2023/02/27 18:45:18;;;;;;;2.93;1.50;;;4.70;99.90;;;;;;5200685;22;20154;-94
2023/02/27 18:47:19;;;;;;;3.43;1.70;;;4.70;99.90;;;;;;5176423;23;20167;-92
2023/02/27 18:49:30;;;;;;;;;;;;;;;;;;;;;
2023/02/27 18:51:42;;;;;;;5.77;1.80;;;4.60;99.90;;;;;;5196548;22;20194;-93
2023/02/27 18:53:58;;;;;;;5.20;1.93;;;4.60;99.90;;;;;;5174977;22;20167;-92
2023/02/27 18:56:31;;;;;;;8.73;2.27;;;4.50;99.90;;;;;;5208765;22;20197;-94
2023/02/27 18:58:33;;;;;;;7.80;2.00;;;4.40;99.90;;;;;;5173009;22;20174;-93
2023/02/27 19:00:36;;;;;;;7.13;2.20;;;4.30;99.90;;;;;;5220642;22;20177;-93
2023/02/27 19:02:43;;;;;;;7.00;2.17;;;4.30;99.90;;;;;;5169285;22;20157;-93
2023/02/27 19:04:47;;;;;;;8.60;2.07;;;4.30;99.90;;;;;;5170898;23;20225;-92
2023/02/27 19:06:55;;;;;;;6.67;2.10;;;4.30;99.90;;;;;;5172097;23;20150;-93
2023/02/27 19:08:56;;;;;;;4.83;2.03;;;4.30;99.90;;;;;;5170397;23;20233;-92
2023/02/27 19:11:43;;;;;;;5.93;2.60;;;4.20;99.90;;;;;;5196357;22;20193;-94
2023/02/27 19:13:52;;;;;;;7.53;2.17;;;4.20;99.90;;;;;;5171084;23;20256;-92
2023/02/27 19:16:03;;;;;;;4.57;2.00;;;4.20;99.90;;;;;;5171214;23;20203;-93
2023/02/27 19:18:16;;;;;;;5.07;2.23;;;4.20;99.90;;;;;;5195315;22;20154;-92
2023/02/27 19:20:19;;;;;;;5.17;2.27;;;4.20;99.90;;;;;;5169410;22;20174;-92
2023/02/27 19:22:28;;;;;;;4.33;2.20;;;4.20;99.90;;;;;;5170391;23;20162;-93
2023/02/27 19:24:40;;;;;;;7.10;2.33;;;4.20;99.90;;;;;;5172529;23;20206;-92
2023/02/27 19:27:06;;;;;;;9.20;2.20;;;4.10;99.90;;;;;;5173026;22;20150;-93
2023/02/27 19:29:15;;;;;;;4.67;1.90;;;4.00;99.90;;;;;;5171497;22;20223;-92
2023/02/27 19:31:40;;;;;;;6.83;2.43;;;4.00;99.90;;;;;;5197156;22;20191;-92
2023/02/27 19:36:27;;;;;;;10.63;2.80;;;3.90;99.90;;;;;;5196386;22;20167;-93
2023/02/27 19:38:46;;;;;;;5.83;2.20;;;3.80;99.90;;;;;;5176433;23;20158;-93
2023/02/27 19:41:13;;;;;;;6.60;2.47;;;3.80;99.90;;;;;;5226719;22;20707;-95
2023/02/27 19:43:22;;;;;;;5.90;2.37;;;3.80;99.90;;;;;;5176970;22;20155;-94
2023/02/27 19:45:28;;;;;;;8.30;2.40;;;3.80;99.90;;;;;;5175286;22;20159;-94
2023/02/27 19:47:55;;;;;;;10.13;2.63;;;3.80;99.90;;;;;;5202315;22;20148;-94
2023/02/27 19:50:24;;;;;;;6.93;2.80;;;3.70;99.90;;;;;;5178153;22;20221;-92
2023/02/27 19:53:07;;;;;;;3.93;2.40;;;3.70;99.90;;;;;;5203351;22;20148;-94
2023/02/27 19:55:21;;;;;;;;;;;;;;;;;;;;;
2023/02/27 19:57:51;;;;;;;5.07;2.10;;;3.70;99.90;;;;;;5227359;22;20208;-96
2023/02/27 19:59:58;;;;;;;7.63;2.57;;;3.70;99.90;;;;;;5173149;23;20154;-93
2023/02/27 20:02:55;;;;;;;6.13;2.20;;;3.70;99.90;;;;;;5226755;22;20153;-93
2023/02/27 20:05:21;;;;;;;;;;;;;;;;;;;;;
2023/02/27 20:10:44;;;;;;;9.33;2.23;;;3.80;99.90;;;;;;5189425;22;20181;-93
2023/02/27 20:13:07;;;;;;;6.87;2.30;;;3.90;99.90;;;;;;5176249;22;20146;-96
2023/02/27 20:15:12;;;;;;;6.17;2.67;;;3.90;99.90;;;;;;5173757;23;20185;-93
2023/02/27 20:22:45;;;;;;;7.80;2.80;;;3.80;99.90;;;;;;5185476;22;20153;-93
2023/02/27 20:25:23;;;;;;;9.93;3.20;;;3.70;99.90;;;;;;5172411;23;20155;-93
2023/02/27 20:27:43;;;;;;;;;;;;;;;;;;;;;
2023/02/27 20:29:56;;;;;;;5.17;2.73;;;3.70;99.90;;;;;;5197883;22;20146;-95
2023/02/27 20:32:08;;;;;;;9.37;2.73;;;3.70;99.90;;;;;;5173282;22;20196;-95
2023/02/27 20:34:31;;;;;;;11.70;3.20;;;3.70;99.90;;;;;;5197554;22;20146;-95
2023/02/27 20:36:38;;;;;;;6.53;3.20;;;3.60;99.90;;;;;;5152296;23;20191;-94
2023/02/27 20:38:51;;;;;;;10.30;3.40;;;3.60;99.90;;;;;;5177895;22;20153;-93
2023/02/27 20:41:24;;;;;;;;;;;;;;;;;;;;;
2023/02/27 20:43:55;;;;;;;13.87;3.80;;;3.60;99.90;;;;;;5197938;22;20162;-94
2023/02/27 20:46:27;;;;;;;6.97;3.13;;;3.60;99.90;;;;;;5168842;22;20174;-95
2023/02/27 20:49:01;;;;;;;11.60;3.70;;;3.60;99.90;;;;;;5171346;23;20162;-95
2023/02/27 20:51:30;;;;;;;7.43;3.23;;;3.50;99.90;;;;;;5197759;22;20194;-94
2023/02/27 20:57:13;;;;;;;;;;;;;;;;;;;;;
2023/02/27 21:00:05;;;;;;;7.57;3.10;;;3.40;99.90;;;;;;5211412;22;20158;-93
2023/02/27 21:03:10;;;;;;;;;;;;;;;;;;;;;
2023/02/27 21:05:21;;;;;;;7.43;3.57;;;3.40;99.90;;;;;;5198744;22;20212;-94
2023/02/27 21:07:51;;;;;;;11.57;3.40;;;3.40;99.90;;;;;;5171885;23;20221;-95
2023/02/27 21:18:16;;;;;;;;;;;;;;;;;;;;;
2023/02/27 21:28:27;;;;;;;9.77;3.70;;;3.10;99.90;;;;;;5000012;23;20162;-95
2023/02/27 21:30:40;;;;;;;;;;;;;;;;;;;;;
2023/02/27 21:33:57;;;;;;;13.13;3.80;;;3.10;99.90;;;;;;5145406;23;20512;-92
2023/02/27 21:39:17;;;;;;;;;;;;;;;;;;;;;
2023/02/27 21:41:48;;;;;;;12.33;4.13;;;3.00;99.90;;;;;;5143881;23;20668;-94
2023/02/27 23:38:00;;;;;;;8.97;4.37;;;2.60;99.90;;;;;;5237583;22;20158;-92
2023/02/27 23:40:54;;;;;;;8.40;4.40;;;2.40;99.90;;;;;;5190742;22;20155;-91
2023/02/27 23:42:47;;;;;;;10.33;4.53;;;2.30;99.90;;;;;;5207625;22;20189;-91
2023/02/27 23:55:53;;;;;;;7.97;4.43;;;2.30;99.90;;;;;;4939426;23;20192;-93
2023/02/27 23:59:04;;;;;;;12.73;4.73;;;2.30;99.90;;;;;;4937949;24;20161;-93
